Time;durP1;ratioP1;P1;durP2;ratioP2;P2;SDS_P1;SDS_P2;PMS_P1;PMS_P2;Temp;Humidity;BMP_temperature;BMP_pressure;BME280_temperature;BME280_humidity;BME280_pressure;Samples;Min_cycle;Max_cycle;Signal;HPM_P1;HPM_P2
2024/01/30 00:01:49;;;;;;;13.47;9.53;;;9.40;99.90;;;;;;4973585;28;20195;-85
2024/01/30 00:04:14;;;;;;;20.13;9.73;;;9.40;99.90;;;;;;4971512;28;20224;-88
2024/01/30 00:06:40;;;;;;;15.13;10.53;;;9.40;99.90;;;;;;4976058;28;20254;-85
2024/01/30 00:09:05;;;;;;;17.23;9.50;;;9.50;97.60;;;;;;4979295;28;20181;-84
2024/01/30 00:11:31;;;;;;;14.50;9.30;;;9.40;1.00;;;;;;4967865;28;21178;-83
2024/01/30 00:13:59;;;;;;;12.53;8.37;;;9.40;1.00;;;;;;4970006;28;20193;-84
2024/01/30 00:19:34;;;;;;;15.07;9.67;;;9.40;1.00;;;;;;4973939;28;20463;-86
2024/01/30 00:22:00;;;;;;;14.20;10.20;;;9.30;1.00;;;;;;4969421;28;20565;-83
2024/01/30 00:27:23;;;;;;;16.00;10.60;;;9.30;99.90;;;;;;4975640;28;20236;-86
2024/01/30 00:29:59;;;;;;;17.33;10.20;;;9.20;99.90;;;;;;4967478;28;20578;-83
2024/01/30 00:32:37;;;;;;;16.73;10.80;;;9.20;99.90;;;;;;4970742;28;20444;-85
2024/01/30 00:35:03;;;;;;;15.13;10.43;;;9.10;1.00;;;;;;4968472;28;20448;-84
2024/01/30 00:37:29;;;;;;;15.47;10.50;;;9.10;1.00;;;;;;4969973;28;20530;-84
2024/01/30 00:39:54;;;;;;;15.37;10.10;;;9.10;1.00;;;;;;4965006;28;20255;-84
2024/01/30 00:42:21;;;;;;;13.73;11.30;;;9.10;1.00;;;;;;4968384;28;20283;-87
2024/01/30 00:44:46;;;;;;;13.97;10.47;;;9.10;1.00;;;;;;4970417;28;20205;-84
2024/01/30 00:47:12;;;;;;;17.67;11.40;;;9.10;1.00;;;;;;4986640;28;20491;-85
2024/01/30 00:49:37;;;;;;;20.87;10.80;;;9.00;1.00;;;;;;4982237;28;20188;-84
2024/01/30 00:52:03;;;;;;;14.23;10.70;;;9.00;1.00;;;;;;4982109;28;20240;-84
2024/01/30 00:54:29;;;;;;;14.33;10.40;;;9.00;99.90;;;;;;4970279;28;20188;-84
2024/01/30 00:56:54;;;;;;;17.47;11.77;;;8.90;1.00;;;;;;4961311;28;20272;-83
2024/01/30 00:59:20;;;;;;;14.97;10.40;;;8.80;1.00;;;;;;4966295;28;20562;-84
2024/01/30 01:01:45;;;;;;;15.97;11.70;;;8.80;1.00;;;;;;4974548;28;20329;-84
2024/01/30 01:04:11;;;;;;;15.30;11.00;;;8.80;1.00;;;;;;4974995;28;20185;-83
2024/01/30 01:06:36;;;;;;;16.83;11.10;;;8.80;1.00;;;;;;4988725;28;20299;-83
2024/01/30 01:09:03;;;;;;;17.57;12.07;;;8.80;1.00;;;;;;4969190;28;20538;-83
2024/01/30 01:11:29;;;;;;;19.43;13.17;;;8.80;1.00;;;;;;4977204;28;20204;-82
2024/01/30 01:13:54;;;;;;;16.07;11.50;;;8.80;1.00;;;;;;4977997;28;20444;-85
2024/01/30 01:16:20;;;;;;;17.50;11.27;;;8.70;1.00;;;;;;4971999;28;20216;-83
2024/01/30 01:18:45;;;;;;;14.10;11.40;;;8.70;99.90;;;;;;4969470;28;20191;-84
2024/01/30 01:21:11;;;;;;;17.20;10.40;;;8.70;99.90;;;;;;4985879;28;20662;-83
2024/01/30 01:23:36;;;;;;;16.83;11.73;;;8.70;99.90;;;;;;4968867;28;20181;-83
2024/01/30 01:26:02;;;;;;;14.10;10.30;;;8.70;99.90;;;;;;4987961;28;20596;-83
2024/01/30 01:28:27;;;;;;;18.20;10.50;;;8.70;1.00;;;;;;4971987;28;20187;-84
2024/01/30 01:30:53;;;;;;;15.93;10.37;;;8.60;99.90;;;;;;4965252;28;20185;-84
2024/01/30 01:33:19;;;;;;;14.80;11.30;;;8.60;1.00;;;;;;4971652;28;20329;-84
2024/01/30 01:35:46;;;;;;;16.30;11.77;;;8.50;1.00;;;;;;4983575;28;20212;-83
2024/01/30 01:38:12;;;;;;;16.00;11.80;;;8.50;99.90;;;;;;4969284;28;20192;-84
2024/01/30 01:40:39;;;;;;;20.20;10.63;;;8.50;99.90;;;;;;4968126;28;20439;-83
2024/01/30 01:43:05;;;;;;;19.70;10.90;;;8.50;88.80;;;;;;4973854;28;20292;-83
2024/01/30 01:45:30;;;;;;;16.90;10.47;;;8.50;23.70;;;;;;4967311;28;20499;-83
2024/01/30 01:47:56;;;;;;;15.90;10.70;;;8.60;7.60;;;;;;4968398;28;20236;-84
2024/01/30 01:50:22;;;;;;;15.77;11.57;;;8.60;1.00;;;;;;4976111;28;20188;-83
2024/01/30 01:52:48;;;;;;;16.17;10.43;;;8.50;75.60;;;;;;4973285;28;20607;-84
2024/01/30 01:55:15;;;;;;;21.47;12.07;;;8.40;99.90;;;;;;4989075;28;20457;-84
2024/01/30 01:57:41;;;;;;;19.43;11.03;;;8.50;99.90;;;;;;4985234;28;20448;-84
2024/01/30 02:00:10;;;;;;;19.67;11.47;;;8.40;99.90;;;;;;4973826;28;20436;-83
2024/01/30 02:02:36;;;;;;;15.30;10.97;;;8.40;99.90;;;;;;4966733;28;20436;-83
2024/01/30 02:05:02;;;;;;;18.17;11.43;;;8.40;99.90;;;;;;4971668;28;20487;-85
2024/01/30 02:07:28;;;;;;;19.77;11.57;;;8.40;99.90;;;;;;4984858;28;20452;-85
2024/01/30 02:09:55;;;;;;;13.57;9.50;;;8.40;99.90;;;;;;4967800;28;21045;-83
2024/01/30 02:12:20;;;;;;;15.77;10.17;;;8.50;99.90;;;;;;4987974;28;20446;-84
2024/01/30 02:14:47;;;;;;;14.10;9.90;;;8.50;99.90;;;;;;4976521;28;20448;-83
2024/01/30 02:17:13;;;;;;;14.60;10.40;;;8.50;99.90;;;;;;4971313;28;20207;-83
2024/01/30 02:19:41;;;;;;;26.10;11.70;;;8.50;99.90;;;;;;4978927;28;20471;-84
2024/01/30 02:22:07;;;;;;;17.63;10.67;;;8.50;70.60;;;;;;4969262;28;20805;-85
2024/01/30 02:24:33;;;;;;;14.80;10.23;;;8.50;5.90;;;;;;4966037;28;20563;-83
2024/01/30 02:26:59;;;;;;;16.50;11.73;;;8.50;14.80;;;;;;4986003;28;20530;-85
2024/01/30 02:29:24;;;;;;;16.90;10.63;;;8.50;59.20;;;;;;4974910;28;20459;-85
2024/01/30 02:31:50;;;;;;;16.63;10.87;;;8.50;93.80;;;;;;4971810;28;20193;-84
2024/01/30 02:34:16;;;;;;;18.70;10.40;;;8.60;99.90;;;;;;4975051;28;20189;-85
2024/01/30 02:36:45;;;;;;;13.50;10.27;;;8.60;94.80;;;;;;4972557;28;20232;-85
2024/01/30 02:39:11;;;;;;;12.57;9.60;;;8.60;58.70;;;;;;4973044;28;20443;-85
2024/01/30 02:41:36;;;;;;;15.93;10.40;;;8.70;46.40;;;;;;4967262;28;20413;-85
2024/01/30 02:44:03;;;;;;;16.33;9.83;;;8.70;1.00;;;;;;4975091;28;20189;-85
2024/01/30 02:46:29;;;;;;;13.77;9.83;;;8.70;1.00;;;;;;4962725;28;20242;-85
2024/01/30 02:48:54;;;;;;;15.53;10.30;;;8.70;1.00;;;;;;4981004;28;20475;-84
2024/01/30 02:51:20;;;;;;;14.23;9.33;;;8.70;1.00;;;;;;4971998;28;20219;-84
2024/01/30 02:53:45;;;;;;;14.57;9.63;;;8.80;1.00;;;;;;4997136;28;20189;-86
2024/01/30 02:56:11;;;;;;;12.57;9.50;;;8.80;1.00;;;;;;4970584;28;20258;-84
2024/01/30 02:58:37;;;;;;;15.60;10.13;;;8.80;1.00;;;;;;4970890;28;20189;-84
2024/01/30 03:01:03;;;;;;;16.30;10.37;;;8.80;72.40;;;;;;4969172;28;20807;-83
2024/01/30 03:03:28;;;;;;;14.53;9.30;;;8.80;91.20;;;;;;4975466;28;20188;-82
2024/01/30 03:05:54;;;;;;;11.50;9.10;;;8.80;99.90;;;;;;4974889;28;20212;-88
2024/01/30 03:08:19;;;;;;;14.23;9.40;;;8.80;99.90;;;;;;4970076;28;20185;-84
2024/01/30 03:10:45;;;;;;;13.73;9.60;;;8.80;99.90;;;;;;4969084;28;20268;-84
2024/01/30 03:13:11;;;;;;;14.73;8.90;;;8.80;99.90;;;;;;4964200;28;20185;-83
2024/01/30 03:15:36;;;;;;;13.00;9.30;;;8.80;99.90;;;;;;4988988;28;20263;-84
2024/01/30 03:18:03;;;;;;;14.73;8.47;;;8.80;99.90;;;;;;4975515;28;20693;-83
2024/01/30 03:20:29;;;;;;;14.03;8.77;;;8.80;99.90;;;;;;4967300;28;20185;-84
2024/01/30 03:22:56;;;;;;;15.13;9.27;;;8.90;99.90;;;;;;4962194;28;20428;-84
2024/01/30 03:25:21;;;;;;;13.67;9.10;;;8.90;48.90;;;;;;4968217;28;20499;-84
2024/01/30 03:27:47;;;;;;;13.40;9.73;;;8.90;25.00;;;;;;4968499;28;20464;-83
2024/01/30 03:30:12;;;;;;;12.20;9.53;;;8.80;67.90;;;;;;4982770;28;20192;-84
2024/01/30 03:32:38;;;;;;;13.20;9.47;;;8.80;52.10;;;;;;4969396;28;20236;-83
2024/01/30 03:35:04;;;;;;;13.53;8.97;;;8.80;1.00;;;;;;4967386;28;20576;-83
2024/01/30 03:37:30;;;;;;;12.60;9.53;;;8.80;1.00;;;;;;4988734;28;20192;-86
2024/01/30 03:39:55;;;;;;;11.97;8.97;;;8.80;1.00;;;;;;4973774;28;20443;-84
2024/01/30 03:42:22;;;;;;;12.60;8.80;;;8.70;1.00;;;;;;4968481;28;20564;-84
2024/01/30 03:44:48;;;;;;;14.77;10.40;;;8.70;1.00;;;;;;4970023;28;20223;-83
2024/01/30 03:47:14;;;;;;;15.43;9.47;;;8.70;1.00;;;;;;4970738;28;20466;-84
2024/01/30 03:49:39;;;;;;;15.93;9.80;;;8.60;1.00;;;;;;4979637;28;20868;-85
2024/01/30 03:52:05;;;;;;;13.83;10.10;;;8.60;1.00;;;;;;4975261;28;20244;-86
2024/01/30 03:54:30;;;;;;;15.20;9.67;;;8.50;11.00;;;;;;4970260;28;20444;-83
2024/01/30 03:56:56;;;;;;;17.10;9.40;;;8.50;1.00;;;;;;4966621;28;20209;-84
2024/01/30 03:59:23;;;;;;;12.43;9.23;;;8.40;1.00;;;;;;4966892;28;20192;-88
2024/01/30 04:01:51;;;;;;;12.43;9.43;;;8.40;1.00;;;;;;4967875;28;20199;-83
2024/01/30 04:04:17;;;;;;;12.80;8.93;;;8.40;1.00;;;;;;4974310;28;20444;-83
2024/01/30 04:06:42;;;;;;;16.13;10.07;;;8.40;1.00;;;;;;4966034;28;20476;-84
2024/01/30 04:09:07;;;;;;;16.73;11.47;;;8.40;1.00;;;;;;4958746;28;20461;-83
2024/01/30 04:11:33;;;;;;;15.20;11.10;;;8.40;4.80;;;;;;4957361;28;20220;-84
2024/01/30 04:13:59;;;;;;;19.97;11.20;;;8.40;50.90;;;;;;4970409;28;20192;-84
2024/01/30 04:16:24;;;;;;;25.17;10.00;;;8.30;99.90;;;;;;4964384;28;20211;-86
2024/01/30 04:18:51;;;;;;;16.20;9.40;;;8.30;99.90;;;;;;4975206;28;20442;-84
2024/01/30 04:21:17;;;;;;;12.60;9.63;;;8.30;99.90;;;;;;4973323;28;20227;-82
2024/01/30 04:23:42;;;;;;;12.60;8.77;;;8.30;99.90;;;;;;4969235;28;20964;-84
2024/01/30 04:26:08;;;;;;;14.67;10.10;;;8.30;99.90;;;;;;4964405;28;20214;-83
2024/01/30 04:28:33;;;;;;;14.47;9.53;;;8.30;99.90;;;;;;4964963;28;20205;-83
2024/01/30 04:30:59;;;;;;;19.03;10.73;;;8.30;99.90;;;;;;4975650;28;20188;-84
2024/01/30 04:33:25;;;;;;;14.10;8.27;;;8.30;99.90;;;;;;4976856;28;20566;-84
2024/01/30 04:35:51;;;;;;;14.70;10.00;;;8.40;99.90;;;;;;4971210;28;20209;-84
2024/01/30 04:38:17;;;;;;;12.63;9.40;;;8.40;99.90;;;;;;4976040;28;20628;-84
2024/01/30 04:40:43;;;;;;;16.10;9.03;;;8.40;99.90;;;;;;4974425;28;20445;-84
2024/01/30 04:43:08;;;;;;;14.67;9.03;;;8.40;99.90;;;;;;4973147;28;20193;-83
2024/01/30 04:45:34;;;;;;;13.67;9.03;;;8.50;99.90;;;;;;4969888;28;20297;-84
2024/01/30 04:47:59;;;;;;;18.07;9.10;;;8.50;99.90;;;;;;4970628;28;20185;-83
2024/01/30 04:50:26;;;;;;;14.07;9.10;;;8.50;99.90;;;;;;4965832;28;20194;-84
2024/01/30 04:52:52;;;;;;;14.17;9.70;;;8.50;99.90;;;;;;4967660;28;20272;-83
2024/01/30 04:55:17;;;;;;;13.80;9.10;;;8.50;99.90;;;;;;4969731;28;20475;-84
2024/01/30 04:57:43;;;;;;;11.93;9.90;;;8.50;93.10;;;;;;4979171;28;20205;-83
2024/01/30 05:00:09;;;;;;;14.83;9.47;;;8.50;82.60;;;;;;4971021;28;20203;-82
2024/01/30 05:02:34;;;;;;;10.63;8.80;;;8.40;99.90;;;;;;4971285;28;20213;-84
2024/01/30 05:05:00;;;;;;;13.20;8.90;;;8.40;99.90;;;;;;4971778;28;20554;-83
2024/01/30 05:07:26;;;;;;;15.20;7.97;;;8.40;99.90;;;;;;4976867;28;20296;-84
2024/01/30 05:09:51;;;;;;;16.03;10.70;;;8.40;99.90;;;;;;4970412;28;20204;-84
2024/01/30 05:12:17;;;;;;;17.87;9.37;;;8.40;99.90;;;;;;4974950;28;20953;-84
2024/01/30 05:14:42;;;;;;;15.30;9.13;;;8.40;99.90;;;;;;4965277;28;20184;-84
2024/01/30 05:17:10;;;;;;;14.60;10.00;;;8.30;99.90;;;;;;4976866;28;20222;-82
2024/01/30 05:19:35;;;;;;;14.30;10.03;;;8.30;99.90;;;;;;4977533;28;20184;-84
2024/01/30 05:22:01;;;;;;;11.73;8.33;;;8.20;99.90;;;;;;4977765;28;20436;-86
2024/01/30 05:24:26;;;;;;;11.20;8.83;;;8.20;99.90;;;;;;4980883;28;20191;-86
2024/01/30 05:26:52;;;;;;;13.90;8.50;;;8.20;99.90;;;;;;4972547;28;20204;-85
2024/01/30 05:29:17;;;;;;;11.70;8.53;;;8.10;99.90;;;;;;4974961;28;20201;-85
2024/01/30 05:31:43;;;;;;;12.40;8.80;;;8.10;99.90;;;;;;4992975;28;20189;-86
2024/01/30 05:34:09;;;;;;;11.80;8.77;;;8.20;99.90;;;;;;4979433;28;20184;-85
2024/01/30 05:36:35;;;;;;;12.43;8.97;;;8.20;99.90;;;;;;4980075;28;20204;-88
2024/01/30 05:39:00;;;;;;;13.60;8.83;;;8.20;99.90;;;;;;4976577;28;20185;-85
2024/01/30 05:41:26;;;;;;;13.70;8.90;;;8.20;99.90;;;;;;4975023;28;20188;-86
2024/01/30 05:43:51;;;;;;;13.80;8.50;;;8.20;99.90;;;;;;4975230;28;20185;-85
2024/01/30 05:46:17;;;;;;;25.47;19.40;;;8.30;99.90;;;;;;4977480;28;20308;-85
2024/01/30 05:48:42;;;;;;;35.90;20.50;;;8.30;99.90;;;;;;4977448;28;20220;-84
2024/01/30 05:51:08;;;;;;;15.97;11.73;;;8.40;99.90;;;;;;4978970;28;20713;-86
2024/01/30 05:53:34;;;;;;;14.73;10.17;;;8.40;1.00;;;;;;4966795;28;20596;-86
2024/01/30 05:56:02;;;;;;;16.63;12.40;;;8.40;1.00;;;;;;4976126;28;20200;-87
2024/01/30 05:58:27;;;;;;;14.23;9.00;;;8.50;1.00;;;;;;4977247;28;20472;-85
2024/01/30 06:00:53;;;;;;;14.00;10.40;;;8.50;99.90;;;;;;4976283;28;20443;-83
2024/01/30 06:03:18;;;;;;;17.53;13.30;;;8.50;99.90;;;;;;4969620;28;20194;-83
2024/01/30 06:05:44;;;;;;;16.40;11.00;;;8.60;99.90;;;;;;4988795;28;20249;-83
2024/01/30 06:08:09;;;;;;;13.40;10.20;;;8.60;99.90;;;;;;4973719;28;20183;-83
2024/01/30 06:10:35;;;;;;;12.43;8.37;;;8.60;99.90;;;;;;4974463;28;20275;-82
2024/01/30 06:13:00;;;;;;;17.97;12.30;;;8.60;99.90;;;;;;4976335;28;20685;-85
2024/01/30 06:15:26;;;;;;;12.53;10.00;;;8.60;99.90;;;;;;4973848;28;20208;-83
2024/01/30 06:17:51;;;;;;;14.50;12.50;;;8.60;99.90;;;;;;4973361;28;20255;-83
2024/01/30 06:20:18;;;;;;;19.83;11.20;;;8.60;99.90;;;;;;4973052;28;20624;-83
2024/01/30 06:22:43;;;;;;;15.40;11.73;;;8.60;99.90;;;;;;4976079;28;22105;-84
2024/01/30 06:25:09;;;;;;;12.17;10.53;;;8.70;99.90;;;;;;4970787;28;20559;-84
2024/01/30 06:27:34;;;;;;;14.50;12.10;;;8.70;99.90;;;;;;4991175;28;20283;-84
2024/01/30 06:30:00;;;;;;;21.90;10.77;;;8.70;99.90;;;;;;4970042;28;20192;-84
2024/01/30 06:32:27;;;;;;;27.87;10.30;;;8.70;99.90;;;;;;4965926;28;20247;-84
2024/01/30 06:34:52;;;;;;;15.50;10.10;;;8.70;99.90;;;;;;4974221;28;20435;-84
2024/01/30 06:37:18;;;;;;;11.83;8.87;;;8.70;99.90;;;;;;4967154;28;20472;-83
2024/01/30 06:39:44;;;;;;;18.83;9.40;;;8.70;99.90;;;;;;4960927;28;20548;-84
2024/01/30 06:42:09;;;;;;;17.07;9.50;;;8.80;99.90;;;;;;4988543;28;20280;-83
2024/01/30 06:44:35;;;;;;;14.50;8.50;;;8.70;99.90;;;;;;4961043;28;20185;-84
2024/01/30 06:47:00;;;;;;;13.33;9.10;;;8.70;99.90;;;;;;4973207;28;20208;-84
2024/01/30 06:49:26;;;;;;;18.70;9.03;;;8.70;99.90;;;;;;4990187;28;20199;-84
2024/01/30 06:51:52;;;;;;;12.07;8.43;;;8.60;99.90;;;;;;4969278;28;20181;-84
2024/01/30 06:54:17;;;;;;;14.70;8.87;;;8.60;99.90;;;;;;4987587;28;20196;-84
2024/01/30 06:56:42;;;;;;;14.07;9.63;;;8.60;99.90;;;;;;4972869;28;20243;-86
2024/01/30 06:59:08;;;;;;;13.97;8.40;;;8.60;99.90;;;;;;4964627;28;20292;-84
2024/01/30 07:01:34;;;;;;;13.77;9.07;;;8.60;99.90;;;;;;4968332;28;20690;-82
2024/01/30 07:03:59;;;;;;;9.83;8.13;;;8.60;99.90;;;;;;4966000;28;20276;-84
2024/01/30 07:06:25;;;;;;;12.20;8.40;;;8.60;99.90;;;;;;4979512;28;20221;-84
2024/01/30 07:08:50;;;;;;;17.37;8.80;;;8.60;99.90;;;;;;4973923;28;20188;-87
2024/01/30 07:11:23;;;;;;;14.13;8.50;;;8.70;99.90;;;;;;4966292;28;20196;-84
2024/01/30 07:13:50;;;;;;;16.10;8.83;;;8.70;99.90;;;;;;4969990;28;20180;-83
2024/01/30 07:16:16;;;;;;;16.60;10.30;;;8.70;99.90;;;;;;4971148;28;20467;-85
2024/01/30 07:18:41;;;;;;;13.03;9.90;;;8.70;99.90;;;;;;4961892;28;20424;-82
2024/01/30 07:21:07;;;;;;;14.10;9.90;;;8.60;99.90;;;;;;4970338;28;20568;-83
2024/01/30 07:23:34;;;;;;;15.73;10.00;;;8.70;99.90;;;;;;4978782;28;20197;-85
2024/01/30 07:25:59;;;;;;;12.50;9.20;;;8.70;99.90;;;;;;4993307;28;20224;-83
2024/01/30 07:28:25;;;;;;;14.80;8.63;;;8.80;99.90;;;;;;4967806;28;20551;-80
2024/01/30 07:30:50;;;;;;;15.73;9.40;;;8.90;99.90;;;;;;4966157;28;20192;-85
2024/01/30 07:33:16;;;;;;;15.33;9.63;;;8.90;99.90;;;;;;4988867;28;20181;-83
2024/01/30 07:35:41;;;;;;;15.97;10.67;;;9.00;99.90;;;;;;4967266;28;20627;-81
2024/01/30 07:38:07;;;;;;;13.77;9.00;;;9.00;99.90;;;;;;4976935;28;20184;-86
2024/01/30 07:40:33;;;;;;;12.60;9.20;;;9.10;99.90;;;;;;4974756;28;20196;-84
2024/01/30 07:42:58;;;;;;;18.10;9.83;;;9.10;99.90;;;;;;4966231;28;20185;-84
2024/01/30 07:45:25;;;;;;;19.37;9.87;;;9.10;99.90;;;;;;4988099;28;20472;-84
2024/01/30 07:47:51;;;;;;;12.30;10.20;;;9.10;99.90;;;;;;4977180;28;20662;-84
2024/01/30 07:50:17;;;;;;;14.17;9.30;;;9.20;99.90;;;;;;4973932;28;20809;-84
2024/01/30 07:52:43;;;;;;;21.60;10.40;;;9.20;99.90;;;;;;4968911;28;20451;-84
2024/01/30 07:55:09;;;;;;;13.90;10.87;;;9.20;99.90;;;;;;4975465;28;20448;-83
2024/01/30 07:57:34;;;;;;;15.90;10.63;;;9.30;99.90;;;;;;4977745;28;20436;-84
2024/01/30 08:00:01;;;;;;;15.67;9.83;;;9.30;99.90;;;;;;4976431;28;20235;-86
2024/01/30 08:02:26;;;;;;;13.43;9.97;;;9.30;99.90;;;;;;4968466;28;20216;-86
2024/01/30 08:04:52;;;;;;;12.83;8.53;;;9.30;27.20;;;;;;4976722;28;20470;-84
2024/01/30 08:07:17;;;;;;;10.00;8.40;;;9.30;1.00;;;;;;4977260;28;20208;-86
2024/01/30 08:09:44;;;;;;;14.53;9.00;;;9.30;1.00;;;;;;4975232;28;20184;-84
2024/01/30 08:12:09;;;;;;;13.77;8.83;;;9.30;1.00;;;;;;4978492;28;20189;-84
2024/01/30 08:14:35;;;;;;;12.03;8.40;;;9.40;1.00;;;;;;4973095;28;20436;-85
2024/01/30 08:17:00;;;;;;;13.10;8.40;;;9.40;1.00;;;;;;4978318;28;20264;-84
2024/01/30 08:19:26;;;;;;;12.57;8.80;;;9.50;1.00;;;;;;4980375;28;20249;-83
2024/01/30 08:21:51;;;;;;;15.30;9.90;;;9.50;1.00;;;;;;4970041;28;20196;-85
2024/01/30 08:24:17;;;;;;;20.20;11.53;;;9.50;1.00;;;;;;4971131;28;20190;-87
2024/01/30 08:26:43;;;;;;;17.30;10.77;;;9.60;1.00;;;;;;4977390;28;20243;-84
2024/01/30 08:29:08;;;;;;;13.70;10.13;;;9.60;1.00;;;;;;4978109;28;20201;-83
2024/01/30 08:32:10;;;;;;;12.27;8.80;;;9.70;1.00;;;;;;4979904;28;20185;-84
2024/01/30 08:34:35;;;;;;;14.20;8.47;;;9.80;1.00;;;;;;4976378;28;20181;-86
2024/01/30 08:37:01;;;;;;;12.90;8.73;;;9.90;99.90;;;;;;4976922;28;20832;-84
2024/01/30 08:39:27;;;;;;;21.80;16.13;;;9.90;99.90;;;;;;4980997;28;20176;-84
2024/01/30 08:41:52;;;;;;;67.33;44.10;;;10.00;99.90;;;;;;4985495;28;20264;-85
2024/01/30 08:44:18;;;;;;;51.93;34.03;;;10.00;99.90;;;;;;4960837;28;20188;-86
2024/01/30 08:46:47;;;;;;;18.90;12.07;;;10.00;99.90;;;;;;4973009;28;20216;-84
2024/01/30 08:49:13;;;;;;;78.40;41.00;;;10.00;99.90;;;;;;4976134;28;20182;-86
2024/01/30 08:51:42;;;;;;;80.30;44.20;;;10.10;99.90;;;;;;4969992;28;20440;-84
2024/01/30 08:54:07;;;;;;;24.33;16.63;;;10.10;99.90;;;;;;4961009;28;20465;-84
2024/01/30 08:56:36;;;;;;;64.83;33.57;;;10.10;99.90;;;;;;4973547;28;20460;-84
2024/01/30 08:59:01;;;;;;;15.80;10.07;;;10.10;99.90;;;;;;4974695;28;20220;-84
2024/01/30 09:01:27;;;;;;;37.53;25.23;;;10.20;99.90;;;;;;4979150;28;20854;-85
2024/01/30 09:03:53;;;;;;;22.37;16.10;;;10.20;99.90;;;;;;4971878;28;20185;-86
2024/01/30 09:06:18;;;;;;;16.53;10.83;;;10.30;99.90;;;;;;4975614;28;20925;-86
2024/01/30 09:08:44;;;;;;;12.87;9.60;;;10.30;26.80;;;;;;4972666;28;20203;-84
2024/01/30 09:11:11;;;;;;;15.37;10.00;;;10.40;1.00;;;;;;4968980;28;20190;-82
2024/01/30 09:13:37;;;;;;;21.73;12.40;;;10.50;1.00;;;;;;4972400;28;20257;-86
2024/01/30 09:16:03;;;;;;;21.27;14.37;;;10.50;1.00;;;;;;4990833;28;20460;-84
2024/01/30 09:18:28;;;;;;;13.77;9.10;;;10.50;1.00;;;;;;4968661;28;20433;-84
2024/01/30 09:20:54;;;;;;;15.03;9.10;;;10.60;99.90;;;;;;4967466;28;20265;-86
2024/01/30 09:23:19;;;;;;;19.33;9.53;;;10.60;99.90;;;;;;4973280;28;20651;-83
2024/01/30 09:25:47;;;;;;;13.10;9.10;;;10.70;99.90;;;;;;4965628;28;20220;-85
2024/01/30 09:28:13;;;;;;;11.07;9.07;;;10.70;99.90;;;;;;4997739;28;20189;-84
2024/01/30 09:30:38;;;;;;;10.90;8.70;;;10.80;99.90;;;;;;4970530;28;20487;-85
2024/01/30 09:33:04;;;;;;;12.37;8.50;;;10.90;99.90;;;;;;4964121;28;20180;-84
2024/01/30 09:35:30;;;;;;;11.90;8.50;;;11.10;99.90;;;;;;4988386;28;20305;-85
2024/01/30 09:37:56;;;;;;;11.97;8.47;;;11.20;61.90;;;;;;4986169;28;20520;-84
2024/01/30 09:40:22;;;;;;;12.77;8.17;;;11.40;1.00;;;;;;4987096;28;20570;-84
2024/01/30 09:42:50;;;;;;;12.13;7.57;;;11.70;1.00;;;;;;4976604;28;20420;-85
2024/01/30 09:45:17;;;;;;;10.40;7.07;;;12.00;99.90;;;;;;4992042;28;20259;-85
2024/01/30 09:47:44;;;;;;;13.63;7.70;;;12.40;1.00;;;;;;4966933;28;20832;-84
2024/01/30 09:50:11;;;;;;;15.23;8.10;;;12.80;1.00;;;;;;4964675;28;20420;-84
2024/01/30 09:52:37;;;;;;;9.73;7.00;;;13.10;99.90;;;;;;4977483;28;20442;-84
2024/01/30 09:55:03;;;;;;;11.60;7.20;;;13.40;1.00;;;;;;4964424;28;20424;-84
2024/01/30 09:57:29;;;;;;;8.60;6.70;;;13.50;99.90;;;;;;4972611;28;20524;-85
2024/01/30 09:59:57;;;;;;;12.70;6.93;;;13.50;99.90;;;;;;4968012;28;20453;-85
2024/01/30 10:02:23;;;;;;;11.07;6.70;;;13.50;25.80;;;;;;4960536;28;20279;-84
2024/01/30 10:04:50;;;;;;;23.70;8.07;;;13.50;19.50;;;;;;4968103;28;20499;-86
2024/01/30 10:07:18;;;;;;;11.70;6.53;;;13.40;1.00;;;;;;4959546;28;20442;-85
2024/01/30 10:09:43;;;;;;;9.27;6.10;;;13.50;1.00;;;;;;4975359;28;20493;-84
2024/01/30 10:12:09;;;;;;;11.70;7.10;;;13.40;1.00;;;;;;4973721;28;20441;-85
2024/01/30 10:14:38;;;;;;;10.03;6.37;;;13.40;1.00;;;;;;4976723;28;20184;-85
2024/01/30 10:17:05;;;;;;;14.73;6.97;;;13.40;1.00;;;;;;4978469;28;20463;-84
2024/01/30 10:19:31;;;;;;;15.37;7.00;;;13.40;1.00;;;;;;4971551;28;20416;-88
2024/01/30 10:21:57;;;;;;;12.70;7.03;;;13.40;1.00;;;;;;4979840;28;20424;-85
2024/01/30 10:24:26;;;;;;;10.73;6.10;;;13.40;27.90;;;;;;4979542;28;20447;-84
2024/01/30 10:26:51;;;;;;;10.00;6.33;;;13.50;17.10;;;;;;4963129;28;20209;-85
2024/01/30 10:29:17;;;;;;;9.40;5.13;;;13.50;32.40;;;;;;4977161;28;20436;-87
2024/01/30 10:31:43;;;;;;;10.50;6.23;;;13.50;49.40;;;;;;4969468;28;20189;-84
2024/01/30 10:34:08;;;;;;;8.63;5.90;;;13.50;51.20;;;;;;4972139;28;20432;-84
2024/01/30 10:36:42;;;;;;;13.43;6.60;;;13.50;99.90;;;;;;4969639;28;20215;-85
2024/01/30 10:39:08;;;;;;;14.70;6.80;;;13.50;99.90;;;;;;4960103;28;20181;-86
2024/01/30 10:41:44;;;;;;;15.17;6.93;;;13.50;99.90;;;;;;4975214;28;20426;-84
2024/01/30 10:44:11;;;;;;;18.33;6.20;;;13.50;99.90;;;;;;4974240;28;20421;-84
2024/01/30 10:46:38;;;;;;;10.43;6.13;;;13.50;99.90;;;;;;4968970;28;20469;-85
2024/01/30 10:49:04;;;;;;;11.00;5.27;;;13.60;99.90;;;;;;4962383;28;20968;-85
2024/01/30 10:51:31;;;;;;;13.53;6.97;;;13.60;99.90;;;;;;4976897;28;20420;-85
2024/01/30 10:53:57;;;;;;;12.87;6.07;;;13.60;1.00;;;;;;4977957;28;20416;-84
2024/01/30 10:56:24;;;;;;;9.60;6.50;;;13.70;99.90;;;;;;4977488;28;20432;-85
2024/01/30 10:58:51;;;;;;;13.40;7.00;;;13.70;99.90;;;;;;4966498;28;20199;-84
2024/01/30 11:01:24;;;;;;;24.70;7.13;;;13.70;99.90;;;;;;4962266;28;20823;-86
2024/01/30 11:03:54;;;;;;;9.10;6.00;;;13.60;1.00;;;;;;4973213;28;20786;-85
2024/01/30 11:06:23;;;;;;;13.37;6.63;;;13.60;1.00;;;;;;4962327;28;20468;-87
2024/01/30 11:09:04;;;;;;;12.77;6.47;;;13.60;1.00;;;;;;4974911;28;20432;-86
2024/01/30 11:11:29;;;;;;;16.17;6.57;;;13.50;62.10;;;;;;4969149;28;20451;-85
2024/01/30 11:13:55;;;;;;;8.63;5.00;;;13.50;99.90;;;;;;4966867;28;20930;-84
2024/01/30 11:16:21;;;;;;;12.47;7.47;;;13.60;99.90;;;;;;4982309;28;20596;-84
2024/01/30 11:18:51;;;;;;;10.40;5.47;;;13.50;1.00;;;;;;4972136;28;20243;-88
2024/01/30 11:21:17;;;;;;;11.23;6.87;;;13.50;1.00;;;;;;4984333;28;20279;-86
2024/01/30 11:23:42;;;;;;;10.43;7.27;;;13.50;1.00;;;;;;4960072;28;20641;-85
2024/01/30 11:26:11;;;;;;;14.30;7.03;;;13.50;1.00;;;;;;4982011;28;20220;-87
2024/01/30 11:28:38;;;;;;;13.33;6.47;;;13.40;99.90;;;;;;4971594;28;20253;-89
2024/01/30 11:31:05;;;;;;;9.17;6.07;;;13.40;1.00;;;;;;4982873;28;20799;-85
2024/01/30 11:33:31;;;;;;;11.00;7.03;;;13.40;1.00;;;;;;4982952;28;20416;-88
2024/01/30 11:36:01;;;;;;;9.53;6.27;;;13.50;99.90;;;;;;4979362;28;20502;-87
2024/01/30 11:38:28;;;;;;;15.23;7.23;;;13.50;99.90;;;;;;4968852;28;20425;-86
2024/01/30 11:40:58;;;;;;;9.77;7.07;;;13.50;99.90;;;;;;4965223;28;20443;-86
2024/01/30 11:43:24;;;;;;;10.47;6.60;;;13.50;99.90;;;;;;4978423;28;20463;-86
2024/01/30 11:45:49;;;;;;;14.20;7.17;;;13.60;99.90;;;;;;4978304;28;20479;-85
2024/01/30 11:48:15;;;;;;;11.73;6.93;;;13.50;99.90;;;;;;4961826;28;20180;-85
2024/01/30 11:50:41;;;;;;;8.53;6.57;;;13.50;99.90;;;;;;4970771;28;20430;-84
2024/01/30 11:53:07;;;;;;;12.57;6.90;;;13.50;99.90;;;;;;4969080;28;20224;-85
2024/01/30 11:55:35;;;;;;;12.67;7.67;;;13.40;1.00;;;;;;4992929;28;20965;-85
2024/01/30 11:58:02;;;;;;;22.10;7.17;;;13.40;1.00;;;;;;4981913;28;20455;-86
2024/01/30 12:00:29;;;;;;;13.23;6.90;;;13.40;1.00;;;;;;4982632;28;20420;-85
2024/01/30 12:02:55;;;;;;;11.77;7.10;;;13.40;1.00;;;;;;4974780;28;20416;-86
2024/01/30 12:05:25;;;;;;;16.40;7.17;;;13.30;1.00;;;;;;4977927;28;20467;-86
2024/01/30 12:07:51;;;;;;;19.03;8.30;;;13.40;1.00;;;;;;4972933;28;20416;-86
2024/01/30 12:10:17;;;;;;;13.80;7.80;;;13.50;99.90;;;;;;4974132;28;20425;-87
2024/01/30 12:12:47;;;;;;;15.37;8.47;;;13.60;12.20;;;;;;4973573;28;20454;-85
2024/01/30 12:15:14;;;;;;;14.07;8.00;;;13.70;1.00;;;;;;4962688;28;20459;-86
2024/01/30 12:17:40;;;;;;;12.30;6.70;;;13.70;1.00;;;;;;4962681;28;20504;-84
2024/01/30 12:20:07;;;;;;;12.70;7.43;;;13.70;1.00;;;;;;4963661;28;20457;-86
2024/01/30 12:22:39;;;;;;;18.10;8.17;;;13.70;1.00;;;;;;4978284;28;20181;-85
2024/01/30 12:25:08;;;;;;;11.77;7.07;;;13.80;1.00;;;;;;4974867;28;20471;-84
2024/01/30 12:27:34;;;;;;;13.67;6.73;;;13.70;99.90;;;;;;4973484;28;20443;-85
2024/01/30 12:30:00;;;;;;;9.87;6.97;;;13.80;99.90;;;;;;4982562;28;20452;-86
2024/01/30 12:32:25;;;;;;;14.63;7.40;;;13.80;99.90;;;;;;4974721;28;20424;-84
2024/01/30 12:34:54;;;;;;;11.87;7.43;;;13.70;99.90;;;;;;4982325;28;20181;-85
2024/01/30 12:37:22;;;;;;;16.83;8.70;;;13.70;99.90;;;;;;4984874;28;20208;-87
2024/01/30 12:39:48;;;;;;;15.90;8.30;;;13.70;99.90;;;;;;4982973;28;20488;-87
2024/01/30 12:42:14;;;;;;;11.60;7.60;;;13.80;99.90;;;;;;4976606;28;20420;-85
2024/01/30 12:44:41;;;;;;;11.90;8.27;;;13.80;99.90;;;;;;4976990;28;20498;-83